In Rescue
 
Open Full Screen Window  High Contrast Mode
Wind Gusting 00 knots
03
December 04, 2021 6:30 PM EST
Weather Information
Wind Direction
  330 °
Wind Speed
  03 kt (3 mph)
Wind Gust
  00 kt (0 mph)
Altimeter
30.25 in
Visibility
10 SM
Temperature
10° C
50° F
Dewpoint
-02° C
28° F
Humidity
43%
1hr Rain Fall
00.00 in.
24hr Rain Fall
00.00 in.
Sky Condition
Clear
VFR

METAR KSYM 042330Z AUTO 33003KT 10SM CLR 10/M02 A3025 RMK AO2

FAA Disclaimer: The data displayed is for advisory purposes only and is not to be used for flight planning or operations.